Time;durP1;ratioP1;P1;durP2;ratioP2;P2;SDS_P1;SDS_P2;PMS_P1;PMS_P2;Temp;Humidity;BMP_temperature;BMP_pressure;BME280_temperature;BME280_humidity;BME280_pressure;Samples;Min_cycle;Max_cycle;Signal;HPM_P1;HPM_P2
2022/07/10 00:00:46;;;;;;;9.93;1.65;;;;;;;;;;5033983;28;20128;-81
2022/07/10 00:03:14;;;;;;;10.07;1.98;;;;;;;;;;5030066;28;20100;-81
2022/07/10 00:05:41;;;;;;;8.70;1.30;;;;;;;;;;5031244;28;20053;-81
2022/07/10 00:08:09;;;;;;;10.13;1.60;;;;;;;;;;5033286;28;20053;-81
2022/07/10 00:10:36;;;;;;;4.25;0.88;;;;;;;;;;5030102;28;20065;-81
2022/07/10 00:13:03;;;;;;;10.77;1.10;;;;;;;;;;5029557;28;20161;-81
2022/07/10 00:15:32;;;;;;;8.23;1.20;;;;;;;;;;5030355;28;20073;-81
2022/07/10 00:17:59;;;;;;;10.25;1.35;;;;;;;;;;5031175;28;20053;-81
2022/07/10 00:20:27;;;;;;;14.02;1.17;;;;;;;;;;5030405;28;20075;-81
2022/07/10 00:22:54;;;;;;;9.32;1.42;;;;;;;;;;5028376;28;20136;-81
2022/07/10 00:25:28;;;;;;;8.57;1.58;;;;;;;;;;5030012;28;20149;-82
2022/07/10 00:27:55;;;;;;;11.65;1.92;;;;;;;;;;5031363;28;20073;-82
2022/07/10 00:30:22;;;;;;;15.00;2.40;;;;;;;;;;5030432;28;20125;-88
2022/07/10 00:32:50;;;;;;;7.80;2.28;;;;;;;;;;5046878;28;20080;-87
2022/07/10 00:35:17;;;;;;;7.35;2.30;;;;;;;;;;5026465;28;20073;-87
2022/07/10 00:37:44;;;;;;;6.60;2.15;;;;;;;;;;5039071;28;20084;-86
2022/07/10 00:40:12;;;;;;;15.48;2.05;;;;;;;;;;5033700;28;20143;-87
2022/07/10 00:42:39;;;;;;;10.10;3.08;;;;;;;;;;5031953;28;20115;-87
2022/07/10 00:45:07;;;;;;;10.45;1.95;;;;;;;;;;5031669;28;20049;-86
2022/07/10 00:47:34;;;;;;;9.32;1.75;;;;;;;;;;5033014;28;20131;-87
2022/07/10 00:50:01;;;;;;;9.02;1.52;;;;;;;;;;5035126;28;20083;-87
2022/07/10 00:52:29;;;;;;;6.88;2.03;;;;;;;;;;5028074;28;20807;-88
2022/07/10 00:54:57;;;;;;;10.05;1.50;;;;;;;;;;5017367;28;20045;-88
2022/07/10 00:57:24;;;;;;;9.68;2.50;;;;;;;;;;5030886;28;20081;-89
2022/07/10 00:59:52;;;;;;;9.73;1.45;;;;;;;;;;5031013;28;20075;-89
2022/07/10 01:02:20;;;;;;;7.40;1.67;;;;;;;;;;5031132;28;20102;-89
2022/07/10 01:04:47;;;;;;;7.50;1.50;;;;;;;;;;5045969;28;20057;-88
2022/07/10 01:07:15;;;;;;;9.38;1.77;;;;;;;;;;5034883;28;20045;-89
2022/07/10 01:09:43;;;;;;;18.00;3.90;;;;;;;;;;5030955;28;20056;-89
2022/07/10 01:12:12;;;;;;;5.72;2.22;;;;;;;;;;5048430;28;20049;-89
2022/07/10 01:14:40;;;;;;;15.98;2.08;;;;;;;;;;5050827;28;20048;-88
2022/07/10 01:17:09;;;;;;;9.48;2.00;;;;;;;;;;5036641;28;20457;-88
2022/07/10 01:19:36;;;;;;;10.00;1.98;;;;;;;;;;5046169;28;20060;-88
2022/07/10 01:22:04;;;;;;;4.53;1.50;;;;;;;;;;5029379;28;20136;-88
2022/07/10 01:24:31;;;;;;;10.45;1.98;;;;;;;;;;5031756;28;20053;-89
2022/07/10 01:26:58;;;;;;;10.40;2.20;;;;;;;;;;5030454;28;20129;-89
2022/07/10 01:29:26;;;;;;;11.23;2.53;;;;;;;;;;5030554;28;20050;-88
2022/07/10 01:31:53;;;;;;;14.80;3.75;;;;;;;;;;5032115;28;20136;-89
2022/07/10 01:34:23;;;;;;;14.40;1.90;;;;;;;;;;5031100;28;20045;-89
2022/07/10 01:36:51;;;;;;;21.90;2.80;;;;;;;;;;5034212;28;20068;-89
2022/07/10 01:39:18;;;;;;;15.50;3.13;;;;;;;;;;5028122;28;20091;-89
2022/07/10 01:41:45;;;;;;;15.75;2.83;;;;;;;;;;5029321;28;20057;-90
2022/07/10 01:44:13;;;;;;;7.78;1.98;;;;;;;;;;5028551;28;20050;-89
2022/07/10 01:46:44;;;;;;;10.63;1.75;;;;;;;;;;5032158;28;20129;-90
2022/07/10 01:49:12;;;;;;;13.55;2.47;;;;;;;;;;5030472;28;20049;-90
2022/07/10 01:51:39;;;;;;;8.82;2.42;;;;;;;;;;5030391;28;20916;-90
2022/07/10 01:54:07;;;;;;;14.32;1.67;;;;;;;;;;5037395;28;20470;-90
2022/07/10 01:56:34;;;;;;;7.68;1.60;;;;;;;;;;5046941;28;20085;-90
2022/07/10 01:59:03;;;;;;;12.15;1.83;;;;;;;;;;5032386;28;20089;-90
2022/07/10 02:01:31;;;;;;;10.30;1.90;;;;;;;;;;5038830;28;20090;-89
2022/07/10 02:06:45;;;;;;;9.23;1.50;;;;;;;;;;5028109;28;20930;-91
2022/07/10 02:09:14;;;;;;;13.35;2.15;;;;;;;;;;5024161;28;20719;-90
2022/07/10 02:11:42;;;;;;;10.43;1.90;;;;;;;;;;5027157;28;20049;-89
2022/07/10 02:14:09;;;;;;;8.10;2.10;;;;;;;;;;5040943;28;20042;-90
2022/07/10 02:16:37;;;;;;;12.15;2.42;;;;;;;;;;5031782;28;20088;-91
2022/07/10 02:19:05;;;;;;;13.70;3.10;;;;;;;;;;5031400;28;20053;-89
2022/07/10 02:21:32;;;;;;;7.15;1.92;;;;;;;;;;5031066;28;20085;-91
2022/07/10 02:23:59;;;;;;;13.65;2.10;;;;;;;;;;5030345;28;20085;-91
2022/07/10 02:26:27;;;;;;;13.32;2.75;;;;;;;;;;5053485;28;20457;-89
2022/07/10 02:28:54;;;;;;;12.60;2.22;;;;;;;;;;5034094;28;20104;-90
2022/07/10 02:31:21;;;;;;;16.02;2.70;;;;;;;;;;5035082;28;20080;-89
2022/07/10 02:33:49;;;;;;;25.10;2.85;;;;;;;;;;5036390;28;20049;-89
2022/07/10 02:36:16;;;;;;;21.10;2.83;;;;;;;;;;5045491;28;20080;-89
2022/07/10 02:38:44;;;;;;;12.82;2.40;;;;;;;;;;5035193;28;20077;-89
2022/07/10 02:41:11;;;;;;;16.20;3.10;;;;;;;;;;5042535;28;20089;-89
2022/07/10 02:43:38;;;;;;;19.25;2.78;;;;;;;;;;5035653;28;20143;-88
2022/07/10 02:46:06;;;;;;;12.48;3.00;;;;;;;;;;5038226;28;20053;-89
2022/07/10 02:48:33;;;;;;;18.33;2.90;;;;;;;;;;5029633;28;20050;-89
2022/07/10 02:51:00;;;;;;;7.85;2.33;;;;;;;;;;5029079;28;20049;-87
2022/07/10 02:53:28;;;;;;;13.73;2.65;;;;;;;;;;5043310;28;20124;-89
2022/07/10 02:55:55;;;;;;;16.48;2.70;;;;;;;;;;5051110;28;20049;-90
2022/07/10 02:58:22;;;;;;;32.10;3.83;;;;;;;;;;5023429;28;20057;-89
2022/07/10 03:00:50;;;;;;;18.25;3.20;;;;;;;;;;5040391;28;20148;-88
2022/07/10 03:03:17;;;;;;;13.25;2.72;;;;;;;;;;5040756;28;20049;-88
2022/07/10 03:05:45;;;;;;;9.13;2.40;;;;;;;;;;5049678;28;20061;-88
2022/07/10 03:08:13;;;;;;;11.00;2.28;;;;;;;;;;5032152;28;20042;-89
2022/07/10 03:10:40;;;;;;;17.73;2.92;;;;;;;;;;5030678;28;20046;-89
2022/07/10 03:13:08;;;;;;;20.63;2.28;;;;;;;;;;5016634;28;20085;-90
2022/07/10 03:15:35;;;;;;;17.42;2.75;;;;;;;;;;5038568;28;20095;-88
2022/07/10 03:18:02;;;;;;;13.48;3.83;;;;;;;;;;5041443;28;20111;-89
2022/07/10 03:20:30;;;;;;;13.23;2.70;;;;;;;;;;5031725;28;20140;-89
2022/07/10 03:22:57;;;;;;;15.95;2.72;;;;;;;;;;5030667;28;20484;-89
2022/07/10 03:25:24;;;;;;;9.95;2.35;;;;;;;;;;5033007;28;20077;-89
2022/07/10 03:27:52;;;;;;;14.45;2.88;;;;;;;;;;5048442;28;20045;-89
2022/07/10 03:30:19;;;;;;;11.77;2.78;;;;;;;;;;5028344;28;20088;-89
2022/07/10 03:32:47;;;;;;;14.43;2.60;;;;;;;;;;5034597;28;20069;-89
2022/07/10 03:35:14;;;;;;;11.65;2.45;;;;;;;;;;5033664;28;20049;-89
2022/07/10 03:37:42;;;;;;;17.88;3.53;;;;;;;;;;5034226;28;20077;-89
2022/07/10 03:40:10;;;;;;;16.27;3.85;;;;;;;;;;5034898;28;20156;-88
2022/07/10 03:42:37;;;;;;;23.52;2.95;;;;;;;;;;5033319;28;20068;-88
2022/07/10 03:45:04;;;;;;;21.63;2.78;;;;;;;;;;5032694;28;20073;-88
2022/07/10 03:47:32;;;;;;;21.65;3.25;;;;;;;;;;5049430;28;20077;-89
2022/07/10 03:49:59;;;;;;;20.35;3.30;;;;;;;;;;5036593;28;20046;-89
2022/07/10 03:52:26;;;;;;;19.60;2.50;;;;;;;;;;5035158;28;20049;-88
2022/07/10 03:54:56;;;;;;;18.85;3.08;;;;;;;;;;5022721;28;20120;-87
2022/07/10 04:00:11;;;;;;;17.00;3.55;;;;;;;;;;5027248;28;20506;-87
2022/07/10 04:02:39;;;;;;;9.85;2.70;;;;;;;;;;5038620;28;20758;-87
2022/07/10 04:05:07;;;;;;;17.60;2.95;;;;;;;;;;5042545;28;20049;-87
2022/07/10 04:07:35;;;;;;;24.60;4.72;;;;;;;;;;5032146;28;20474;-88
2022/07/10 04:10:03;;;;;;;16.67;2.83;;;;;;;;;;5042381;28;20134;-88
2022/07/10 04:12:32;;;;;;;18.38;3.30;;;;;;;;;;5047890;28;20053;-87
2022/07/10 04:14:59;;;;;;;18.80;2.88;;;;;;;;;;5032245;28;20806;-88
2022/07/10 04:17:26;;;;;;;17.48;2.83;;;;;;;;;;5031776;28;20132;-87
2022/07/10 04:19:54;;;;;;;17.05;3.05;;;;;;;;;;5032131;28;20148;-87
2022/07/10 04:22:21;;;;;;;18.98;3.42;;;;;;;;;;5031004;28;20088;-87
2022/07/10 04:24:50;;;;;;;24.08;3.40;;;;;;;;;;5027945;28;20140;-87
2022/07/10 04:27:18;;;;;;;16.17;2.78;;;;;;;;;;5032349;28;20222;-87
2022/07/10 04:29:45;;;;;;;16.98;2.67;;;;;;;;;;5031439;28;20049;-87
2022/07/10 04:32:12;;;;;;;27.42;4.63;;;;;;;;;;5054425;22;20084;-85
2022/07/10 04:34:39;;;;;;;18.20;2.78;;;;;;;;;;5011245;28;20806;-86
2022/07/10 04:37:07;;;;;;;22.60;3.08;;;;;;;;;;5012844;28;20049;-86
2022/07/10 04:39:34;;;;;;;10.07;2.72;;;;;;;;;;5011294;28;20749;-86
2022/07/10 04:42:03;;;;;;;18.63;2.80;;;;;;;;;;5011173;28;20056;-84
2022/07/10 04:44:30;;;;;;;13.73;2.15;;;;;;;;;;5012009;28;20073;-85
2022/07/10 04:47:01;;;;;;;18.08;2.75;;;;;;;;;;5011063;28;20085;-85
2022/07/10 04:49:28;;;;;;;10.98;4.20;;;;;;;;;;5011772;28;20554;-85
2022/07/10 04:51:56;;;;;;;17.45;2.33;;;;;;;;;;5010896;28;20081;-85
2022/07/10 04:54:23;;;;;;;16.67;2.13;;;;;;;;;;5007664;28;20110;-86
2022/07/10 04:56:51;;;;;;;15.95;2.75;;;;;;;;;;5007368;28;20129;-86
2022/07/10 04:59:18;;;;;;;12.20;2.58;;;;;;;;;;5006841;28;20081;-86
2022/07/10 05:01:46;;;;;;;13.07;2.60;;;;;;;;;;5010221;28;20081;-84
2022/07/10 05:04:13;;;;;;;15.82;2.75;;;;;;;;;;5011450;28;20108;-85
2022/07/10 05:06:40;;;;;;;16.75;2.83;;;;;;;;;;5006732;28;20137;-85
2022/07/10 05:09:08;;;;;;;11.07;2.60;;;;;;;;;;5007308;28;20081;-87
2022/07/10 05:11:35;;;;;;;23.63;2.58;;;;;;;;;;5003499;28;20121;-85
2022/07/10 05:14:02;;;;;;;31.98;3.53;;;;;;;;;;5010110;28;20046;-85
2022/07/10 05:16:29;;;;;;;14.55;2.70;;;;;;;;;;5010331;28;20157;-85
2022/07/10 05:18:57;;;;;;;11.10;1.80;;;;;;;;;;5010175;28;20420;-85
2022/07/10 05:21:25;;;;;;;21.13;2.92;;;;;;;;;;5010216;28;20622;-84
2022/07/10 05:23:52;;;;;;;14.75;2.53;;;;;;;;;;5021629;22;20089;-77
2022/07/10 05:26:20;;;;;;;14.07;2.10;;;;;;;;;;5045212;28;20077;-78
2022/07/10 05:28:47;;;;;;;15.77;2.10;;;;;;;;;;5027897;28;20133;-78
2022/07/10 05:31:14;;;;;;;13.13;2.78;;;;;;;;;;5026084;28;20069;-78
2022/07/10 05:33:43;;;;;;;14.98;2.17;;;;;;;;;;5020805;28;20057;-78
2022/07/10 05:36:10;;;;;;;13.90;3.20;;;;;;;;;;5012370;28;20477;-78
2022/07/10 05:38:37;;;;;;;17.50;2.17;;;;;;;;;;5042582;28;20088;-77
2022/07/10 05:41:05;;;;;;;19.30;2.28;;;;;;;;;;5025259;28;20497;-78
2022/07/10 05:43:32;;;;;;;13.82;1.90;;;;;;;;;;5037782;28;20057;-78
2022/07/10 05:46:00;;;;;;;14.27;2.15;;;;;;;;;;5023880;28;20152;-78
2022/07/10 05:48:27;;;;;;;12.38;2.90;;;;;;;;;;5026999;28;20048;-78
2022/07/10 05:50:54;;;;;;;15.77;2.20;;;;;;;;;;5025308;28;20388;-78
2022/07/10 05:53:42;;;;;;;12.30;2.42;;;;;;;;;;5024287;28;20057;-78
2022/07/10 05:56:09;;;;;;;11.48;2.38;;;;;;;;;;5028238;28;20049;-77
2022/07/10 05:58:36;;;;;;;17.35;2.55;;;;;;;;;;5029540;28;20058;-78
2022/07/10 06:01:04;;;;;;;17.23;2.70;;;;;;;;;;5044249;28;20634;-77
2022/07/10 06:03:31;;;;;;;20.70;2.92;;;;;;;;;;5029198;28;20111;-77
2022/07/10 06:06:01;;;;;;;21.13;2.60;;;;;;;;;;5028508;28;20084;-77
2022/07/10 06:08:29;;;;;;;11.02;2.20;;;;;;;;;;5025016;28;20132;-77
2022/07/10 06:10:56;;;;;;;19.00;2.58;;;;;;;;;;5023017;28;20125;-77
2022/07/10 06:13:24;;;;;;;19.63;2.42;;;;;;;;;;5024367;28;20049;-77
2022/07/10 06:15:51;;;;;;;15.95;2.63;;;;;;;;;;5031391;28;20080;-78
2022/07/10 06:18:18;;;;;;;16.13;2.30;;;;;;;;;;5047950;28;20145;-77
2022/07/10 06:20:46;;;;;;;17.00;2.30;;;;;;;;;;5032759;28;20076;-77
2022/07/10 06:23:13;;;;;;;11.88;2.80;;;;;;;;;;5030988;28;20866;-77
2022/07/10 06:25:40;;;;;;;17.95;2.60;;;;;;;;;;5028490;28;20140;-77
2022/07/10 06:28:08;;;;;;;7.93;1.75;;;;;;;;;;5032374;28;20149;-77
2022/07/10 06:30:35;;;;;;;23.00;3.22;;;;;;;;;;5014591;28;20148;-77
2022/07/10 06:33:02;;;;;;;12.32;2.40;;;;;;;;;;5028706;28;20468;-77
2022/07/10 06:35:30;;;;;;;13.95;2.33;;;;;;;;;;5044477;28;20046;-77
2022/07/10 06:37:57;;;;;;;16.13;2.00;;;;;;;;;;5032128;28;20089;-77
2022/07/10 06:40:25;;;;;;;19.08;3.58;;;;;;;;;;5024231;28;20433;-77
2022/07/10 06:42:53;;;;;;;14.00;2.28;;;;;;;;;;5030328;28;20080;-77
2022/07/10 06:45:20;;;;;;;10.60;2.40;;;;;;;;;;5030976;28;20137;-77
2022/07/10 06:47:58;;;;;;;16.38;2.00;;;;;;;;;;5030371;28;22433;-77
2022/07/10 06:50:27;;;;;;;13.75;2.13;;;;;;;;;;5031104;28;20707;-77
2022/07/10 06:52:54;;;;;;;18.98;2.53;;;;;;;;;;5026975;28;20137;-77
2022/07/10 06:55:22;;;;;;;11.23;2.10;;;;;;;;;;5025472;28;20076;-77
2022/07/10 06:57:49;;;;;;;14.70;3.20;;;;;;;;;;5027039;28;20085;-77
2022/07/10 07:00:16;;;;;;;8.15;1.58;;;;;;;;;;5012719;28;20077;-78
2022/07/10 07:02:44;;;;;;;17.10;1.90;;;;;;;;;;5033903;28;20821;-77
2022/07/10 07:08:00;;;;;;;16.05;2.08;;;;;;;;;;4989224;28;20148;-82
2022/07/10 07:10:27;;;;;;;9.57;1.90;;;;;;;;;;4993402;28;20112;-83
2022/07/10 07:12:54;;;;;;;9.23;2.03;;;;;;;;;;4992898;28;20084;-83
2022/07/10 07:15:23;;;;;;;17.33;2.15;;;;;;;;;;4994699;28;20046;-83
2022/07/10 07:17:57;;;;;;;20.13;2.42;;;;;;;;;;4992855;28;20121;-83
2022/07/10 07:23:12;;;;;;;10.02;1.33;;;;;;;;;;4993888;28;20132;-82
2022/07/10 07:25:44;;;;;;;17.58;1.70;;;;;;;;;;4992093;28;20039;-83
2022/07/10 07:28:11;;;;;;;13.93;2.58;;;;;;;;;;4991371;28;20097;-83
2022/07/10 07:30:38;;;;;;;16.45;1.98;;;;;;;;;;4989779;28;20093;-83
2022/07/10 07:33:06;;;;;;;14.20;2.10;;;;;;;;;;4991876;28;20049;-83
2022/07/10 07:35:33;;;;;;;12.52;2.05;;;;;;;;;;4993832;28;20691;-84
2022/07/10 07:38:02;;;;;;;10.98;1.30;;;;;;;;;;4992010;28;20077;-83
2022/07/10 07:40:29;;;;;;;12.25;1.55;;;;;;;;;;5010886;28;20121;-82
2022/07/10 07:42:56;;;;;;;15.38;2.03;;;;;;;;;;5003195;28;20046;-85
2022/07/10 07:45:24;;;;;;;13.15;2.78;;;;;;;;;;4993880;28;20278;-86
2022/07/10 07:48:07;;;;;;;11.77;1.52;;;;;;;;;;4993566;28;20088;-84
2022/07/10 07:50:36;;;;;;;13.98;2.03;;;;;;;;;;4992164;28;20085;-83
2022/07/10 07:53:04;;;;;;;24.30;1.85;;;;;;;;;;4995601;28;20225;-82
2022/07/10 07:55:32;;;;;;;13.20;1.73;;;;;;;;;;4993164;28;20046;-82
2022/07/10 07:58:00;;;;;;;15.05;2.28;;;;;;;;;;4985921;28;20046;-83
2022/07/10 08:00:28;;;;;;;6.82;1.30;;;;;;;;;;4987159;28;20046;-81
2022/07/10 08:02:56;;;;;;;9.50;1.58;;;;;;;;;;4993111;28;20124;-80
2022/07/10 08:05:24;;;;;;;10.60;1.48;;;;;;;;;;4992370;28;20278;-80
2022/07/10 08:07:52;;;;;;;15.57;2.00;;;;;;;;;;4993208;28;20563;-84
2022/07/10 08:10:20;;;;;;;16.73;1.88;;;;;;;;;;4985915;28;20078;-83
2022/07/10 08:12:48;;;;;;;11.05;1.48;;;;;;;;;;4985895;28;20046;-82
2022/07/10 08:15:16;;;;;;;16.40;1.75;;;;;;;;;;4992027;28;20092;-79
2022/07/10 08:17:44;;;;;;;16.23;2.53;;;;;;;;;;4991967;28;20065;-84
2022/07/10 08:20:13;;;;;;;11.27;2.58;;;;;;;;;;4992820;28;20054;-80
2022/07/10 08:22:41;;;;;;;8.50;1.52;;;;;;;;;;4991757;28;20525;-82
2022/07/10 08:25:09;;;;;;;9.98;2.10;;;;;;;;;;5001756;22;20088;-75
2022/07/10 08:27:36;;;;;;;7.70;0.90;;;;;;;;;;5041838;28;20136;-77
2022/07/10 08:30:04;;;;;;;8.45;1.88;;;;;;;;;;5027870;28;20159;-77
2022/07/10 08:32:31;;;;;;;9.95;1.83;;;;;;;;;;5026914;28;20069;-75
2022/07/10 08:35:05;;;;;;;19.17;4.80;;;;;;;;;;5027498;28;20132;-77
2022/07/10 08:37:39;;;;;;;9.88;2.88;;;;;;;;;;5043046;28;20084;-75
2022/07/10 08:40:09;;;;;;;14.63;4.45;;;;;;;;;;5031569;28;20124;-77
2022/07/10 08:42:36;;;;;;;9.77;2.33;;;;;;;;;;5026310;28;20139;-75
2022/07/10 08:45:04;;;;;;;4.88;1.17;;;;;;;;;;5028491;28;20064;-77
2022/07/10 08:47:33;;;;;;;12.60;1.70;;;;;;;;;;5028528;28;20088;-75
2022/07/10 08:50:10;;;;;;;4.50;1.25;;;;;;;;;;5024222;28;20053;-76
2022/07/10 08:52:46;;;;;;;7.80;1.40;;;;;;;;;;5035753;28;20184;-75
2022/07/10 08:55:17;;;;;;;9.18;1.80;;;;;;;;;;5020688;28;20060;-74
2022/07/10 08:57:44;;;;;;;13.65;1.73;;;;;;;;;;5021311;28;20454;-75
2022/07/10 09:00:11;;;;;;;7.18;1.42;;;;;;;;;;5036785;28;20056;-76
2022/07/10 09:02:39;;;;;;;9.35;1.67;;;;;;;;;;5032992;28;21353;-74
2022/07/10 09:05:08;;;;;;;11.00;1.75;;;;;;;;;;5019391;28;20060;-74
2022/07/10 09:07:36;;;;;;;16.73;2.85;;;;;;;;;;5036034;28;20180;-74
2022/07/10 09:10:07;;;;;;;7.65;1.67;;;;;;;;;;5017463;28;20117;-74
2022/07/10 09:13:07;;;;;;;13.02;2.15;;;;;;;;;;5023876;28;20835;-75
2022/07/10 09:15:34;;;;;;;10.00;2.10;;;;;;;;;;5002429;28;20755;-76
2022/07/10 09:18:05;;;;;;;13.60;2.03;;;;;;;;;;5023954;28;20099;-77
2022/07/10 09:20:32;;;;;;;6.03;1.15;;;;;;;;;;5024218;28;20448;-77
2022/07/10 09:23:20;;;;;;;8.02;1.05;;;;;;;;;;5026049;28;20073;-76
2022/07/10 09:25:48;;;;;;;5.50;0.82;;;;;;;;;;5025724;28;20092;-76
2022/07/10 09:28:18;;;;;;;9.77;1.42;;;;;;;;;;5042147;28;20179;-77
2022/07/10 09:30:47;;;;;;;9.82;1.52;;;;;;;;;;5021738;28;20128;-77
2022/07/10 09:33:25;;;;;;;8.73;1.42;;;;;;;;;;5025908;28;20045;-77
2022/07/10 09:38:54;;;;;;;8.43;0.95;;;;;;;;;;5024334;28;20069;-76
2022/07/10 09:41:24;;;;;;;9.65;1.50;;;;;;;;;;5024399;28;20069;-76
2022/07/10 09:43:55;;;;;;;7.38;1.17;;;;;;;;;;5027034;28;20466;-77
2022/07/10 09:46:24;;;;;;;16.00;1.77;;;;;;;;;;5026836;28;20106;-77
2022/07/10 09:49:21;;;;;;;8.68;1.33;;;;;;;;;;5019836;28;20128;-77
2022/07/10 09:51:49;;;;;;;8.05;1.67;;;;;;;;;;5019173;28;20111;-77
2022/07/10 09:54:18;;;;;;;6.68;1.35;;;;;;;;;;5018659;28;20057;-77
2022/07/10 09:56:52;;;;;;;6.80;1.90;;;;;;;;;;5018720;28;20150;-75
2022/07/10 09:59:20;;;;;;;15.35;1.60;;;;;;;;;;5021665;28;20107;-75
2022/07/10 10:08:46;;;;;;;5.53;1.15;;;;;;;;;;5033429;22;20931;-85
2022/07/10 10:11:21;;;;;;;6.65;1.23;;;;;;;;;;5023458;28;21421;-84
2022/07/10 10:13:50;;;;;;;8.10;1.58;;;;;;;;;;5026886;28;20108;-84
2022/07/10 10:16:19;;;;;;;4.88;1.70;;;;;;;;;;5023692;28;20155;-85
2022/07/10 10:21:34;;;;;;;6.03;1.83;;;;;;;;;;5027334;28;21018;-83
2022/07/10 10:24:02;;;;;;;7.40;1.48;;;;;;;;;;5029019;28;20456;-83
2022/07/10 10:26:29;;;;;;;11.18;2.10;;;;;;;;;;5030643;28;20057;-84
2022/07/10 10:28:58;;;;;;;11.02;1.65;;;;;;;;;;5029122;28;20103;-83
2022/07/10 10:31:27;;;;;;;7.38;1.75;;;;;;;;;;5027899;28;20137;-85
2022/07/10 10:34:00;;;;;;;13.43;1.45;;;;;;;;;;5029674;28;20121;-85
2022/07/10 10:36:36;;;;;;;8.43;1.42;;;;;;;;;;5030175;28;20045;-85
2022/07/10 10:39:13;;;;;;;9.23;1.38;;;;;;;;;;5029775;28;20116;-83
2022/07/10 10:41:52;;;;;;;7.13;1.30;;;;;;;;;;5038274;28;20062;-84
2022/07/10 10:44:20;;;;;;;7.70;1.10;;;;;;;;;;5024482;28;20059;-84
2022/07/10 10:46:50;;;;;;;5.78;1.20;;;;;;;;;;5022677;28;20081;-82
2022/07/10 10:49:22;;;;;;;6.75;1.25;;;;;;;;;;5028375;28;20123;-81
2022/07/10 10:52:02;;;;;;;8.18;1.13;;;;;;;;;;5030824;28;20053;-82
2022/07/10 10:54:30;;;;;;;8.02;1.27;;;;;;;;;;5043583;28;20084;-81
2022/07/10 10:57:12;;;;;;;6.47;1.20;;;;;;;;;;5022946;28;20499;-81
2022/07/10 10:59:50;;;;;;;5.13;1.10;;;;;;;;;;5026796;28;20121;-82
2022/07/10 11:02:26;;;;;;;11.07;1.55;;;;;;;;;;5036501;28;20095;-82
2022/07/10 11:05:18;;;;;;;5.72;1.20;;;;;;;;;;5031059;28;20679;-82
2022/07/10 11:07:56;;;;;;;4.70;1.83;;;;;;;;;;5027911;28;20070;-81
2022/07/10 11:10:30;;;;;;;10.43;1.40;;;;;;;;;;5046515;28;20132;-82
2022/07/10 11:13:04;;;;;;;3.92;1.25;;;;;;;;;;5032724;28;20565;-85
2022/07/10 11:15:35;;;;;;;8.30;1.00;;;;;;;;;;5024940;28;20158;-82
2022/07/10 11:18:05;;;;;;;6.55;1.00;;;;;;;;;;5030571;28;20545;-82
2022/07/10 11:20:34;;;;;;;6.88;1.10;;;;;;;;;;5030666;28;20849;-83
2022/07/10 11:23:07;;;;;;;4.00;1.27;;;;;;;;;;5029055;28;20572;-82
2022/07/10 11:25:41;;;;;;;7.25;1.55;;;;;;;;;;5028786;28;20133;-83
2022/07/10 11:28:10;;;;;;;6.88;1.73;;;;;;;;;;5028502;28;20078;-82
2022/07/10 11:30:44;;;;;;;9.68;1.33;;;;;;;;;;5044860;28;20042;-86
2022/07/10 11:33:12;;;;;;;9.02;1.38;;;;;;;;;;5039329;28;20103;-84
2022/07/10 11:35:40;;;;;;;10.45;1.80;;;;;;;;;;5029986;28;20072;-88
2022/07/10 11:38:07;;;;;;;6.22;1.30;;;;;;;;;;5029314;28;20548;-86
2022/07/10 11:40:38;;;;;;;9.43;1.38;;;;;;;;;;5028143;28;20096;-88
2022/07/10 11:43:13;;;;;;;11.93;1.67;;;;;;;;;;5029765;28;20057;-84
2022/07/10 11:45:41;;;;;;;;;;;;;;;;;;5032780;28;20084;-84
2022/07/10 11:48:17;;;;;;;9.77;1.45;;;;;;;;;;5029086;28;19975;-87
2022/07/10 11:50:44;;;;;;;6.05;1.13;;;;;;;;;;5030015;28;20108;-84
2022/07/10 11:53:12;;;;;;;9.48;1.60;;;;;;;;;;5031197;28;20438;-86
2022/07/10 11:55:43;;;;;;;9.13;1.50;;;;;;;;;;5028879;28;20053;-82
2022/07/10 11:58:14;;;;;;;6.18;1.13;;;;;;;;;;5023272;28;20054;-87
2022/07/10 12:00:41;;;;;;;10.55;1.60;;;;;;;;;;5031988;23;20639;-86
2022/07/10 12:03:19;;;;;;;6.95;1.58;;;;;;;;;;5032872;28;20073;-86
2022/07/10 12:05:55;;;;;;;7.80;1.40;;;;;;;;;;5031121;28;20045;-87
2022/07/10 12:08:23;;;;;;;10.40;1.50;;;;;;;;;;5033122;28;20494;-88
2022/07/10 12:10:51;;;;;;;9.85;1.25;;;;;;;;;;5030278;28;20137;-83
2022/07/10 12:13:19;;;;;;;8.35;1.70;;;;;;;;;;5033577;28;20122;-84
2022/07/10 12:15:46;;;;;;;10.45;1.42;;;;;;;;;;5036577;28;20073;-84
2022/07/10 12:18:18;;;;;;;7.50;1.60;;;;;;;;;;5029198;28;20046;-84
2022/07/10 12:20:47;;;;;;;10.32;1.80;;;;;;;;;;5034248;28;20049;-83
2022/07/10 12:23:18;;;;;;;8.13;1.40;;;;;;;;;;5034112;28;20783;-83
2022/07/10 12:25:49;;;;;;;7.90;1.15;;;;;;;;;;5031456;28;20439;-85
2022/07/10 12:28:16;;;;;;;8.20;1.50;;;;;;;;;;5031185;28;20049;-87
2022/07/10 12:30:44;;;;;;;6.88;0.85;;;;;;;;;;5035006;28;20128;-86
2022/07/10 12:33:18;;;;;;;12.13;1.17;;;;;;;;;;5031175;28;20088;-83
2022/07/10 12:35:56;;;;;;;4.55;1.17;;;;;;;;;;5034637;28;20111;-83
2022/07/10 12:38:23;;;;;;;8.93;1.52;;;;;;;;;;5034604;28;20046;-84
2022/07/10 12:40:51;;;;;;;8.40;1.77;;;;;;;;;;5028422;28;20453;-83
2022/07/10 12:43:28;;;;;;;10.57;1.40;;;;;;;;;;5024413;28;20467;-83
2022/07/10 12:46:09;;;;;;;12.63;1.77;;;;;;;;;;5022047;28;20136;-82
2022/07/10 12:48:37;;;;;;;10.45;1.33;;;;;;;;;;5030247;28;20095;-83
2022/07/10 12:51:22;;;;;;;11.90;1.50;;;;;;;;;;5033352;28;20045;-81
2022/07/10 12:53:49;;;;;;;7.35;1.85;;;;;;;;;;5033652;28;20038;-83
2022/07/10 12:56:35;;;;;;;7.82;1.30;;;;;;;;;;5032477;28;20465;-83
2022/07/10 12:59:04;;;;;;;9.15;1.88;;;;;;;;;;5032769;28;20092;-82
2022/07/10 13:01:45;;;;;;;8.93;1.45;;;;;;;;;;5022166;28;20145;-86
2022/07/10 13:04:12;;;;;;;6.00;1.23;;;;;;;;;;5026309;28;20045;-85
2022/07/10 13:06:40;;;;;;;12.55;1.85;;;;;;;;;;5029823;28;20092;-84
2022/07/10 13:09:18;;;;;;;10.10;1.85;;;;;;;;;;5031212;28;20490;-84
2022/07/10 13:11:46;;;;;;;6.95;2.03;;;;;;;;;;5046687;28;20053;-84
2022/07/10 13:14:13;;;;;;;9.55;1.50;;;;;;;;;;5045070;28;20067;-85
2022/07/10 13:16:41;;;;;;;11.93;1.73;;;;;;;;;;5048836;28;20132;-86
2022/07/10 13:19:08;;;;;;;8.20;1.65;;;;;;;;;;5037184;28;20053;-85
2022/07/10 13:21:36;;;;;;;6.25;1.27;;;;;;;;;;5033136;28;20053;-87
2022/07/10 13:24:04;;;;;;;6.35;1.23;;;;;;;;;;5044565;28;20053;-84
2022/07/10 13:26:31;;;;;;;7.78;0.98;;;;;;;;;;5036046;28;20095;-84
2022/07/10 13:28:59;;;;;;;9.48;1.17;;;;;;;;;;5040095;28;20083;-86
2022/07/10 13:31:26;;;;;;;6.03;1.63;;;;;;;;;;5030404;28;20128;-85
2022/07/10 13:33:53;;;;;;;9.95;1.73;;;;;;;;;;5039894;28;20037;-83
2022/07/10 13:36:21;;;;;;;13.57;1.65;;;;;;;;;;5040992;28;20076;-84
2022/07/10 13:38:49;;;;;;;6.97;1.38;;;;;;;;;;5051404;28;20084;-86
2022/07/10 13:41:17;;;;;;;6.28;1.30;;;;;;;;;;5043255;28;20664;-84
2022/07/10 13:43:44;;;;;;;10.63;1.63;;;;;;;;;;5038058;28;20080;-84
2022/07/10 13:46:11;;;;;;;10.38;1.92;;;;;;;;;;5031445;28;20081;-84
2022/07/10 13:48:39;;;;;;;10.10;1.30;;;;;;;;;;5030093;28;20048;-84
2022/07/10 13:51:07;;;;;;;13.48;1.95;;;;;;;;;;5048719;28;20049;-84
2022/07/10 13:53:34;;;;;;;8.50;1.50;;;;;;;;;;5030196;28;20132;-84
2022/07/10 13:56:04;;;;;;;6.68;1.25;;;;;;;;;;5027890;28;20568;-91
2022/07/10 13:58:32;;;;;;;6.20;1.50;;;;;;;;;;5034713;28;20041;-82
2022/07/10 14:00:59;;;;;;;8.40;1.15;;;;;;;;;;5029407;28;20402;-80
2022/07/10 14:03:27;;;;;;;7.03;1.45;;;;;;;;;;5037229;28;20690;-77
2022/07/10 14:05:54;;;;;;;7.05;1.17;;;;;;;;;;5022814;28;20060;-78
2022/07/10 14:08:22;;;;;;;7.65;1.08;;;;;;;;;;5032005;28;20077;-80
2022/07/10 14:10:49;;;;;;;10.63;1.40;;;;;;;;;;5025582;28;20532;-78
2022/07/10 14:13:17;;;;;;;4.63;1.33;;;;;;;;;;5025428;28;20136;-77
2022/07/10 14:15:44;;;;;;;7.72;1.85;;;;;;;;;;5042599;28;20081;-77
2022/07/10 14:18:12;;;;;;;9.13;1.50;;;;;;;;;;5029297;28;20037;-78
2022/07/10 14:23:25;;;;;;;6.00;1.13;;;;;;;;;;5030483;28;20045;-76
2022/07/10 14:25:54;;;;;;;9.75;1.50;;;;;;;;;;5030875;28;20124;-77
2022/07/10 14:28:25;;;;;;;6.32;1.77;;;;;;;;;;5023486;28;20128;-78
2022/07/10 14:30:53;;;;;;;6.60;1.40;;;;;;;;;;5020025;28;20132;-83
2022/07/10 14:33:21;;;;;;;8.90;1.25;;;;;;;;;;5015387;28;20129;-79
2022/07/10 14:35:48;;;;;;;3.67;1.15;;;;;;;;;;5036254;28;20132;-76
2022/07/10 14:38:15;;;;;;;4.35;1.30;;;;;;;;;;5025365;28;20129;-77
2022/07/10 14:40:43;;;;;;;4.05;1.50;;;;;;;;;;5035246;28;20140;-76
2022/07/10 14:43:10;;;;;;;5.38;1.33;;;;;;;;;;5034595;28;20162;-76
2022/07/10 14:45:37;;;;;;;5.00;1.25;;;;;;;;;;5023983;28;20133;-76
2022/07/10 14:48:25;;;;;;;8.63;1.77;;;;;;;;;;5024584;28;20060;-75
2022/07/10 14:50:52;;;;;;;7.88;1.27;;;;;;;;;;5020407;28;21461;-76
2022/07/10 14:53:20;;;;;;;7.88;1.20;;;;;;;;;;5025372;28;20145;-76
2022/07/10 14:55:48;;;;;;;5.65;1.05;;;;;;;;;;5019559;28;20050;-76
2022/07/10 14:58:15;;;;;;;6.78;0.98;;;;;;;;;;5017286;28;20130;-77
2022/07/10 15:00:42;;;;;;;9.05;1.33;;;;;;;;;;5022394;28;20122;-76
2022/07/10 15:03:10;;;;;;;11.57;1.42;;;;;;;;;;5021701;28;20144;-75
2022/07/10 15:05:37;;;;;;;4.40;1.20;;;;;;;;;;5020641;28;20067;-75
2022/07/10 15:08:05;;;;;;;5.90;1.25;;;;;;;;;;5026313;28;20061;-75
2022/07/10 15:10:33;;;;;;;4.65;1.00;;;;;;;;;;5028591;28;20585;-76
2022/07/10 15:13:04;;;;;;;5.93;0.98;;;;;;;;;;5025032;28;20931;-76